Terminal Aerodrome Forecast
Issued by NWS Lake Charles, LA

Home | Current Version | Previous Version | Text Only | Print | Product List | Glossary On
Versions: 1 2 3 4 5 6 7 8 9 10 11 12 13 14 15
000
FTUS44 KLCH 261235 AAA
TAFARA
TAF AMD
KARA 261235Z 2613/2712 07004KT 4SM BR SCT002
      TEMPO 2613/2614 1/2SM FG VV002
     FM261500 05004KT P6SM FEW025 SCT035
     FM261900 VRB05KT P6SM VCSH SCT040
     FM270100 VRB03KT P6SM FEW050 SCT250=

USA.gov is the U.S. government's official web portal to all federal, state and local government web resources and services.